createdAt,value
2018-07-07T00:00:59.772Z,0
2018-07-07T00:01:59.762Z,0
2018-07-07T00:02:59.497Z,0
2018-07-07T00:03:59.746Z,0
2018-07-07T00:04:59.485Z,0
2018-07-07T00:05:59.223Z,0
2018-07-07T00:06:59.723Z,0
2018-07-07T00:07:59.473Z,0
2018-07-07T00:08:59.710Z,0
2018-07-07T00:09:59.451Z,0
2018-07-07T00:10:59.440Z,0
2018-07-07T00:11:59.433Z,0
2018-07-07T00:12:59.428Z,0
2018-07-07T00:13:59.423Z,0
2018-07-07T00:14:59.153Z,0
2018-07-07T00:15:59.659Z,0
2018-07-07T00:16:59.401Z,0
2018-07-07T00:17:59.689Z,0
2018-07-07T00:18:59.379Z,0
2018-07-07T00:19:59.114Z,0
2018-07-07T00:20:59.628Z,0
2018-07-07T00:21:59.613Z,0
2018-07-07T00:22:59.353Z,0
2018-07-07T00:23:59.347Z,0
2018-07-07T00:24:59.336Z,0
2018-07-07T00:25:59.076Z,0
2018-07-07T00:26:59.583Z,0
2018-07-07T00:27:59.059Z,0
2018-07-07T00:28:59.564Z,0
2018-07-07T00:29:59.297Z,0
2018-07-07T00:30:59.546Z,0
2018-07-07T00:31:59.537Z,0
2018-07-07T00:32:59.276Z,0
2018-07-07T00:33:59.530Z,0
2018-07-07T00:34:59.257Z,0
2018-07-07T00:35:59.253Z,0
2018-07-07T00:36:59.505Z,0
2018-07-07T00:37:59.492Z,0
2018-07-07T00:38:58.972Z,0
2018-07-07T00:39:59.220Z,0
2018-07-07T00:40:59.521Z,0
2018-07-07T00:41:59.207Z,0
2018-07-07T00:42:59.454Z,0
2018-07-07T00:43:59.451Z,0
2018-07-07T00:44:58.925Z,0
2018-07-07T00:45:59.173Z,0
2018-07-07T00:46:59.168Z,0
2018-07-07T00:47:59.157Z,0
2018-07-07T00:48:59.406Z,0
2018-07-07T00:49:59.142Z,0
2018-07-07T00:50:58.877Z,0
2018-07-07T00:51:59.381Z,0
2018-07-07T00:52:58.863Z,0
2018-07-07T00:53:59.107Z,0
2018-07-07T00:54:59.361Z,0
2018-07-07T00:55:59.098Z,0
2018-07-07T00:56:59.094Z,0
2018-07-07T00:57:58.824Z,0
2018-07-07T00:58:59.071Z,0
2018-07-07T00:59:59.060Z,0
2018-07-07T01:00:58.542Z,0
2018-07-07T01:01:59.308Z,0
2018-07-07T01:02:59.299Z,0
2018-07-07T01:03:58.777Z,0
2018-07-07T01:04:59.279Z,0
2018-07-07T01:05:59.014Z,0
2018-07-07T01:06:59.011Z,0
2018-07-07T01:07:59.258Z,0
2018-07-07T01:08:59.248Z,0
2018-07-07T01:09:58.992Z,0
2018-07-07T01:10:59.242Z,0
2018-07-07T01:11:58.975Z,0
2018-07-07T01:12:58.970Z,0
2018-07-07T01:13:59.217Z,0
2018-07-07T01:14:58.693Z,0
2018-07-07T01:15:59.198Z,0
2018-07-07T01:16:59.200Z,0
2018-07-07T01:17:59.184Z,0
2018-07-07T01:18:58.921Z,0
2018-07-07T01:19:59.169Z,0
2018-07-07T01:20:58.903Z,0
2018-07-07T01:21:58.897Z,0
2018-07-07T01:22:59.138Z,0
2018-07-07T01:23:59.121Z,0
2018-07-07T01:24:59.117Z,0
2018-07-07T01:25:58.857Z,0
2018-07-07T01:26:59.099Z,0
2018-07-07T01:27:58.834Z,0
2018-07-07T01:28:58.566Z,0
2018-07-07T01:29:59.071Z,0
2018-07-07T01:30:59.070Z,0
2018-07-07T01:31:59.058Z,0
2018-07-07T01:32:59.047Z,0
2018-07-07T01:33:59.035Z,0
2018-07-07T01:34:59.027Z,0
2018-07-07T01:35:59.020Z,0
2018-07-07T01:36:58.771Z,0
2018-07-07T01:37:58.233Z,0
2018-07-07T01:38:58.737Z,0
2018-07-07T01:39:58.982Z,0
2018-07-07T01:40:58.978Z,0
2018-07-07T01:41:58.973Z,0
2018-07-07T01:42:58.959Z,0
2018-07-07T01:43:58.955Z,0
2018-07-07T01:44:58.939Z,0
2018-07-07T01:45:58.927Z,0
2018-07-07T01:46:58.928Z,0
2018-07-07T01:47:58.657Z,0
2018-07-07T01:48:58.648Z,0
2018-07-07T01:49:58.646Z,0
2018-07-07T01:50:58.631Z,0
2018-07-07T01:51:58.889Z,0
2018-07-07T01:52:58.618Z,0
2018-07-07T01:53:58.603Z,0
2018-07-07T01:54:58.854Z,0
2018-07-07T01:55:58.587Z,0
2018-07-07T01:56:58.831Z,0
2018-07-07T01:57:58.823Z,0
2018-07-07T01:58:58.814Z,0
2018-07-07T01:59:58.549Z,0
2018-07-07T02:00:58.798Z,0
2018-07-07T02:01:58.787Z,0
2018-07-07T02:02:58.780Z,0
2018-07-07T02:03:58.772Z,0
2018-07-07T02:04:58.506Z,0
2018-07-07T02:05:58.241Z,0
2018-07-07T02:06:58.749Z,0
2018-07-07T02:07:58.221Z,0
2018-07-07T02:08:58.728Z,0
2018-07-07T02:09:58.719Z,0
2018-07-07T02:10:58.452Z,0
2018-07-07T02:11:58.694Z,0
2018-07-07T02:12:58.687Z,0
2018-07-07T02:13:58.679Z,0
2018-07-07T02:14:58.666Z,0
2018-07-07T02:15:58.402Z,0
2018-07-07T02:16:58.653Z,0
2018-07-07T02:17:58.640Z,0
2018-07-07T02:18:58.819Z,0
2018-07-07T02:19:58.633Z,0
2018-07-07T02:20:58.612Z,0
2018-07-07T02:21:58.606Z,0
2018-07-07T02:22:58.082Z,0
2018-07-07T02:23:58.581Z,0
2018-07-07T02:24:58.320Z,4
2018-07-07T02:25:58.569Z,4
2018-07-07T02:26:58.558Z,0
2018-07-07T02:27:58.545Z,0
2018-07-07T02:28:58.283Z,4
2018-07-07T02:29:58.529Z,4
2018-07-07T02:30:58.526Z,4
2018-07-07T02:31:58.252Z,4
2018-07-07T02:32:58.245Z,4
2018-07-07T02:33:57.985Z,4
2018-07-07T02:34:58.237Z,4
2018-07-07T02:35:58.478Z,8
2018-07-07T02:36:58.211Z,8
2018-07-07T02:37:57.941Z,8
2018-07-07T02:38:58.449Z,12
2018-07-07T02:39:58.466Z,12
2018-07-07T02:40:58.170Z,16
2018-07-07T02:41:58.161Z,12
2018-07-07T02:42:57.905Z,16
2018-07-07T02:43:58.404Z,16
2018-07-07T02:44:58.392Z,20
2018-07-07T02:45:58.386Z,28
2018-07-07T02:46:58.123Z,24
2018-07-07T02:47:58.108Z,32
2018-07-07T02:48:58.372Z,36
2018-07-07T02:49:58.081Z,40
2018-07-07T02:50:58.331Z,44
2018-07-07T02:51:57.811Z,48
2018-07-07T02:52:58.336Z,52
2018-07-07T02:53:58.302Z,60
2018-07-07T02:54:57.777Z,64
2018-07-07T02:55:58.031Z,76
2018-07-07T02:56:58.033Z,84
2018-07-07T02:57:58.006Z,88
2018-07-07T02:58:58.268Z,96
2018-07-07T02:59:58.247Z,108
2018-07-07T03:00:58.235Z,116
2018-07-07T03:01:58.224Z,128
2018-07-07T03:02:57.707Z,140
2018-07-07T03:03:57.953Z,152
2018-07-07T03:04:57.430Z,164
2018-07-07T03:05:58.204Z,176
2018-07-07T03:06:58.183Z,188
2018-07-07T03:07:58.165Z,204
2018-07-07T03:08:57.908Z,220
2018-07-07T03:09:57.891Z,236
2018-07-07T03:10:57.878Z,252
2018-07-07T03:11:57.886Z,268
2018-07-07T03:12:58.119Z,288
2018-07-07T03:13:58.108Z,304
2018-07-07T03:14:57.837Z,324
2018-07-07T03:15:58.091Z,340
2018-07-07T03:16:58.089Z,364
2018-07-07T03:17:57.812Z,384
2018-07-07T03:18:57.798Z,400
2018-07-07T03:19:57.529Z,424
2018-07-07T03:20:58.039Z,444
2018-07-07T03:21:57.778Z,464
2018-07-07T03:22:57.756Z,492
2018-07-07T03:23:58.007Z,512
2018-07-07T03:24:57.993Z,536
2018-07-07T03:25:57.731Z,560
2018-07-07T03:26:57.978Z,584
2018-07-07T03:27:57.967Z,604
2018-07-07T03:28:57.696Z,624
2018-07-07T03:29:57.692Z,648
2018-07-07T03:30:57.679Z,672
2018-07-07T03:31:57.694Z,692
2018-07-07T03:32:57.913Z,716
2018-07-07T03:33:57.648Z,740
2018-07-07T03:34:57.380Z,764
2018-07-07T03:35:57.638Z,784
2018-07-07T03:36:57.870Z,804
2018-07-07T03:37:57.893Z,832
2018-07-07T03:38:57.854Z,856
2018-07-07T03:39:57.846Z,876
2018-07-07T03:40:57.845Z,896
2018-07-07T03:41:57.830Z,924
2018-07-07T03:42:57.818Z,940
2018-07-07T03:43:57.810Z,964
2018-07-07T03:44:57.791Z,984
2018-07-07T03:45:57.273Z,1004
2018-07-07T03:46:57.772Z,1028
2018-07-07T03:47:57.508Z,1048
2018-07-07T03:48:57.756Z,1068
2018-07-07T03:49:57.743Z,1088
2018-07-07T03:50:57.476Z,1108
2018-07-07T03:51:57.728Z,1128
2018-07-07T03:52:57.459Z,1148
2018-07-07T03:53:57.449Z,1168
2018-07-07T03:54:57.437Z,1188
2018-07-07T03:55:57.687Z,1208
2018-07-07T03:56:57.419Z,1224
2018-07-07T03:57:57.660Z,1244
2018-07-07T03:58:57.355Z,1260
2018-07-07T03:59:57.642Z,1280
2018-07-07T04:00:57.386Z,1300
2018-07-07T04:01:57.622Z,1320
2018-07-07T04:02:57.607Z,1336
2018-07-07T04:03:57.597Z,1352
2018-07-07T04:04:57.585Z,1368
2018-07-07T04:05:57.328Z,1384
2018-07-07T04:06:57.575Z,1404
2018-07-07T04:07:57.302Z,1420
2018-07-07T04:08:57.552Z,1440
2018-07-07T04:09:57.290Z,1452
2018-07-07T04:10:57.013Z,1472
2018-07-07T04:11:57.517Z,1488
2018-07-07T04:12:57.504Z,1504
2018-07-07T04:13:57.241Z,1520
2018-07-07T04:14:57.228Z,1536
2018-07-07T04:15:57.488Z,1552
2018-07-07T04:16:57.209Z,1572
2018-07-07T04:17:57.455Z,1588
2018-07-07T04:18:57.450Z,1604
2018-07-07T04:19:56.973Z,1624
2018-07-07T04:20:56.914Z,1640
2018-07-07T04:21:57.417Z,1660
2018-07-07T04:22:57.407Z,1680
2018-07-07T04:23:57.403Z,1696
2018-07-07T04:24:57.128Z,1712
2018-07-07T04:25:57.383Z,1724
2018-07-07T04:26:57.366Z,1736
2018-07-07T04:27:57.103Z,1752
2018-07-07T04:28:57.088Z,1768
2018-07-07T04:29:57.083Z,1784
2018-07-07T04:30:57.087Z,1796
2018-07-07T04:31:57.065Z,1816
2018-07-07T04:32:57.047Z,1828
2018-07-07T04:33:57.298Z,1848
2018-07-07T04:34:57.027Z,1864
2018-07-07T04:35:57.289Z,1884
2018-07-07T04:36:57.265Z,1900
2018-07-07T04:37:57.001Z,1920
2018-07-07T04:38:57.248Z,1932
2018-07-07T04:39:57.239Z,1948
2018-07-07T04:40:56.968Z,1968
2018-07-07T04:41:57.219Z,1980
2018-07-07T04:42:57.209Z,1996
2018-07-07T04:43:57.198Z,2008
2018-07-07T04:44:56.931Z,2024
2018-07-07T04:45:57.350Z,2032
2018-07-07T04:46:57.172Z,2044
2018-07-07T04:47:57.162Z,2060
2018-07-07T04:48:56.903Z,2076
2018-07-07T04:49:56.631Z,2088
2018-07-07T04:50:57.132Z,2104
2018-07-07T04:51:57.125Z,2124
2018-07-07T04:52:57.119Z,2144
2018-07-07T04:53:57.115Z,2176
2018-07-07T04:54:57.091Z,2224
2018-07-07T04:55:57.089Z,2308
2018-07-07T04:56:57.075Z,2404
2018-07-07T04:57:57.064Z,2480
2018-07-07T04:58:56.799Z,2440
2018-07-07T04:59:57.049Z,2320
2018-07-07T05:00:57.036Z,2280
2018-07-07T05:01:57.026Z,2296
2018-07-07T05:02:56.775Z,2312
2018-07-07T05:03:56.754Z,2332
2018-07-07T05:04:56.753Z,2352
2018-07-07T05:05:56.991Z,2372
2018-07-07T05:06:56.469Z,2392
2018-07-07T05:07:56.991Z,2404
2018-07-07T05:08:56.712Z,2424
2018-07-07T05:09:56.962Z,2440
2018-07-07T05:10:56.690Z,2456
2018-07-07T05:11:56.939Z,2480
2018-07-07T05:12:56.932Z,2504
2018-07-07T05:13:56.664Z,2532
2018-07-07T05:14:56.656Z,2568
2018-07-07T05:15:56.908Z,2608
2018-07-07T05:16:56.891Z,2660
2018-07-07T05:17:56.885Z,2724
2018-07-07T05:18:56.616Z,2796
2018-07-07T05:19:56.354Z,2884
2018-07-07T05:20:56.859Z,2980
2018-07-07T05:21:56.846Z,3084
2018-07-07T05:22:56.837Z,3200
2018-07-07T05:23:56.319Z,3320
2018-07-07T05:24:56.567Z,3448
2018-07-07T05:25:56.811Z,3568
2018-07-07T05:26:56.837Z,3672
2018-07-07T05:27:56.803Z,3760
2018-07-07T05:28:56.788Z,3828
2018-07-07T05:29:56.521Z,3884
2018-07-07T05:30:56.771Z,3892
2018-07-07T05:31:57.239Z,3880
2018-07-07T05:32:56.497Z,3864
2018-07-07T05:33:56.239Z,3848
2018-07-07T05:34:56.736Z,3816
2018-07-07T05:35:57.012Z,3804
2018-07-07T05:36:56.729Z,3824
2018-07-07T05:37:56.206Z,3800
2018-07-07T05:38:56.189Z,3556
2018-07-07T05:39:55.925Z,3488
2018-07-07T05:40:56.435Z,3464
2018-07-07T05:41:56.679Z,3336
2018-07-07T05:42:56.414Z,3268
2018-07-07T05:43:56.663Z,3244
2018-07-07T05:44:56.401Z,3228
2018-07-07T05:45:56.656Z,3232
2018-07-07T05:46:56.384Z,3272
2018-07-07T05:47:56.386Z,3348
2018-07-07T05:48:56.368Z,3372
2018-07-07T05:49:56.658Z,3388
2018-07-07T05:50:56.353Z,3512
2018-07-07T05:51:56.359Z,3632
2018-07-07T05:52:56.341Z,3644
2018-07-07T05:53:56.584Z,3704
2018-07-07T05:54:56.319Z,3816
2018-07-07T05:55:56.573Z,3936
2018-07-07T05:56:56.306Z,4048
2018-07-07T05:57:56.563Z,4152
2018-07-07T05:58:56.037Z,4236
2018-07-07T05:59:56.031Z,4280
2018-07-07T06:00:56.533Z,4304
2018-07-07T06:01:56.280Z,4328
2018-07-07T06:02:56.265Z,4340
2018-07-07T06:03:56.259Z,4320
2018-07-07T06:04:56.507Z,4308
2018-07-07T06:05:55.983Z,4296
2018-07-07T06:06:56.242Z,4344
2018-07-07T06:07:56.488Z,4252
2018-07-07T06:08:56.475Z,4204
2018-07-07T06:09:55.961Z,4220
2018-07-07T06:10:55.948Z,4212
2018-07-07T06:11:56.198Z,4212
2018-07-07T06:12:56.451Z,4144
2018-07-07T06:13:56.187Z,3980
2018-07-07T06:14:56.183Z,3924
2018-07-07T06:15:55.913Z,3940
2018-07-07T06:16:56.164Z,3900
2018-07-07T06:17:56.158Z,3884
2018-07-07T06:18:55.892Z,3840
2018-07-07T06:19:56.410Z,3836
2018-07-07T06:20:56.140Z,3796
2018-07-07T06:21:56.398Z,3728
2018-07-07T06:22:56.383Z,3744
2018-07-07T06:23:56.122Z,3704
2018-07-07T06:24:56.376Z,3696
2018-07-07T06:25:56.110Z,3668
2018-07-07T06:26:56.409Z,3660
2018-07-07T06:27:56.099Z,3632
2018-07-07T06:28:56.351Z,3604
2018-07-07T06:29:56.342Z,3584
2018-07-07T06:30:56.079Z,3584
2018-07-07T06:31:56.335Z,3612
2018-07-07T06:32:56.069Z,3676
2018-07-07T06:33:56.062Z,3780
2018-07-07T06:34:56.320Z,3856
2018-07-07T06:35:56.049Z,4108
2018-07-07T06:36:56.307Z,4272
2018-07-07T06:37:56.300Z,4340
2018-07-07T06:38:56.293Z,4368
2018-07-07T06:39:55.774Z,4440
2018-07-07T06:40:56.282Z,4760
2018-07-07T06:41:56.015Z,5540
2018-07-07T06:42:56.269Z,10476
2018-07-07T06:43:56.393Z,27840
2018-07-07T06:44:56.253Z,40128
2018-07-07T06:45:56.257Z,44928
2018-07-07T06:46:56.239Z,49824
2018-07-07T06:47:56.234Z,48128
2018-07-07T06:48:56.289Z,46464
2018-07-07T06:49:56.223Z,45792
2018-07-07T06:50:55.707Z,46752
2018-07-07T06:51:55.960Z,49536
2018-07-07T06:52:55.696Z,47232
2018-07-07T06:53:56.826Z,46368
2018-07-07T06:54:56.208Z,46176
2018-07-07T06:55:56.203Z,47328
2018-07-07T06:56:56.195Z,48640
2018-07-07T06:57:55.940Z,50304
2018-07-07T06:58:56.190Z,51360
2018-07-07T06:59:56.097Z,53120
2018-07-07T07:00:55.927Z,54528
2018-07-07T07:01:56.183Z,57536
2018-07-07T07:02:55.927Z,55872
2018-07-07T07:03:56.199Z,53312
2018-07-07T07:04:56.188Z,57792
2018-07-07T07:05:56.189Z,61056
2018-07-07T07:06:55.925Z,59488
2018-07-07T07:07:56.182Z,61792
2018-07-07T07:08:56.221Z,60352
2018-07-07T07:09:55.924Z,54912
2018-07-07T07:10:55.931Z,54752
2018-07-07T07:11:56.343Z,57312
2018-07-07T07:12:56.224Z,57184
2018-07-07T07:13:56.189Z,55616
2018-07-07T07:14:56.187Z,56800
2018-07-07T07:15:56.194Z,56096
2018-07-07T07:16:56.187Z,56480
2018-07-07T07:17:55.939Z,58272
2018-07-07T07:18:56.191Z,57760
2018-07-07T07:19:56.018Z,56576
2018-07-07T07:20:55.950Z,57600
2018-07-07T07:21:56.202Z,56576
2018-07-07T07:22:55.950Z,54496
2018-07-07T07:23:56.206Z,56896
2018-07-07T07:24:56.219Z,58080
2018-07-07T07:25:56.062Z,58464
2018-07-07T07:26:56.217Z,59808
2018-07-07T07:27:55.968Z,59776
2018-07-07T07:28:56.223Z,62208
2018-07-07T07:29:55.972Z,57792
2018-07-07T07:30:56.240Z,58496
2018-07-07T07:31:56.238Z,54656
2018-07-07T07:32:56.317Z,52320
2018-07-07T07:33:55.988Z,54368
2018-07-07T07:34:56.256Z,51936
2018-07-07T07:35:56.315Z,48128
2018-07-07T07:36:56.554Z,42880
2018-07-07T07:37:56.265Z,29728
2018-07-07T07:38:56.054Z,16352
2018-07-07T07:39:56.319Z,45344
2018-07-07T07:40:56.291Z,41600
2018-07-07T07:41:56.280Z,39296
2018-07-07T07:42:55.771Z,46880
2018-07-07T07:43:56.292Z,25152
2018-07-07T07:44:56.299Z,15272
2018-07-07T07:45:56.294Z,9784
2018-07-07T07:46:56.305Z,8656
2018-07-07T07:47:55.789Z,5220
2018-07-07T07:48:56.308Z,4960
2018-07-07T07:49:56.311Z,5492
2018-07-07T07:50:55.797Z,6992
2018-07-07T07:51:56.318Z,12724
2018-07-07T07:52:56.618Z,15756
2018-07-07T07:53:56.322Z,20352
2018-07-07T07:54:56.319Z,12912
2018-07-07T07:55:56.322Z,7352
2018-07-07T07:56:56.327Z,6060
2018-07-07T07:57:56.324Z,5904
2018-07-07T07:58:56.108Z,5288
2018-07-07T07:59:55.808Z,4920
2018-07-07T08:00:55.813Z,4980
2018-07-07T08:01:56.327Z,4748
2018-07-07T08:02:56.066Z,4592
2018-07-07T08:03:56.068Z,4464
2018-07-07T08:04:56.607Z,4336
2018-07-07T08:05:56.075Z,4212
2018-07-07T08:06:56.066Z,4108
2018-07-07T08:07:56.323Z,4052
2018-07-07T08:08:56.332Z,4020
2018-07-07T08:09:55.811Z,3960
2018-07-07T08:10:55.812Z,3968
2018-07-07T08:11:56.326Z,4016
2018-07-07T08:12:56.329Z,4060
2018-07-07T08:13:56.333Z,4100
2018-07-07T08:14:56.346Z,4076
2018-07-07T08:15:55.818Z,4064
2018-07-07T08:16:56.334Z,4040
2018-07-07T08:17:56.340Z,4020
2018-07-07T08:18:56.081Z,4008
2018-07-07T08:19:56.077Z,4004
2018-07-07T08:20:56.336Z,3988
2018-07-07T08:21:56.337Z,3964
2018-07-07T08:22:56.185Z,3948
2018-07-07T08:23:55.821Z,3912
2018-07-07T08:24:56.336Z,3868
2018-07-07T08:25:56.337Z,3800
2018-07-07T08:26:56.336Z,3712
2018-07-07T08:27:56.080Z,3656
2018-07-07T08:28:56.338Z,3612
2018-07-07T08:29:56.088Z,3580
2018-07-07T08:30:56.337Z,3556
2018-07-07T08:31:56.092Z,3548
2018-07-07T08:32:56.340Z,3540
2018-07-07T08:33:56.077Z,3544
2018-07-07T08:34:56.338Z,3572
2018-07-07T08:35:56.335Z,3580
2018-07-07T08:36:56.340Z,3584
2018-07-07T08:37:56.080Z,3556
2018-07-07T08:38:56.339Z,3524
2018-07-07T08:39:56.332Z,3516
2018-07-07T08:40:56.331Z,3504
2018-07-07T08:41:56.724Z,3472
2018-07-07T08:42:56.332Z,3428
2018-07-07T08:43:56.074Z,3396
2018-07-07T08:44:56.331Z,3368
2018-07-07T08:45:56.074Z,3364
2018-07-07T08:46:56.076Z,3344
2018-07-07T08:47:56.326Z,3348
2018-07-07T08:48:56.328Z,3360
2018-07-07T08:49:56.327Z,3368
2018-07-07T08:50:56.322Z,3368
2018-07-07T08:51:56.329Z,3364
2018-07-07T08:52:56.067Z,3372
2018-07-07T08:53:56.320Z,3384
2018-07-07T08:54:56.318Z,3392
2018-07-07T08:55:56.325Z,3392
2018-07-07T08:56:56.060Z,3404
2018-07-07T08:57:56.058Z,3400
2018-07-07T08:58:56.316Z,3392
2018-07-07T08:59:56.317Z,3392
2018-07-07T09:00:56.052Z,3396
2018-07-07T09:01:56.054Z,3392
2018-07-07T09:02:56.052Z,3376
2018-07-07T09:03:56.051Z,3348
2018-07-07T09:04:56.047Z,3348
2018-07-07T09:05:56.307Z,3348
2018-07-07T09:06:56.316Z,3332
2018-07-07T09:07:55.945Z,3332
2018-07-07T09:08:56.305Z,3332
2018-07-07T09:09:56.301Z,3328
2018-07-07T09:10:56.300Z,3332
2018-07-07T09:11:56.051Z,3332
2018-07-07T09:12:56.295Z,3328
2018-07-07T09:13:56.297Z,3328
2018-07-07T09:14:56.293Z,3316
2018-07-07T09:15:56.088Z,3308
2018-07-07T09:16:56.043Z,3292
2018-07-07T09:17:56.285Z,3280
2018-07-07T09:18:56.346Z,3284
2018-07-07T09:19:56.287Z,3284
2018-07-07T09:20:56.290Z,3288
2018-07-07T09:21:56.289Z,3288
2018-07-07T09:22:56.281Z,3300
2018-07-07T09:23:56.028Z,3312
2018-07-07T09:24:56.022Z,3316
2018-07-07T09:25:56.282Z,3316
2018-07-07T09:26:56.023Z,3320
2018-07-07T09:27:56.277Z,3296
2018-07-07T09:28:56.015Z,3260
2018-07-07T09:29:56.268Z,3216
2018-07-07T09:30:56.526Z,3192
2018-07-07T09:31:56.272Z,3176
2018-07-07T09:32:56.289Z,3180
2018-07-07T09:33:56.009Z,3184
2018-07-07T09:34:56.262Z,3176
2018-07-07T09:35:55.749Z,3168
2018-07-07T09:36:56.004Z,3152
2018-07-07T09:37:55.745Z,3136
2018-07-07T09:38:55.833Z,3128
2018-07-07T09:39:55.997Z,3124
2018-07-07T09:40:55.997Z,3120
2018-07-07T09:41:55.738Z,3116
2018-07-07T09:42:56.258Z,3112
2018-07-07T09:43:56.258Z,3108
2018-07-07T09:44:56.256Z,3096
2018-07-07T09:45:56.252Z,3084
2018-07-07T09:46:56.248Z,3080
2018-07-07T09:47:55.990Z,3072
2018-07-07T09:48:55.990Z,3060
2018-07-07T09:49:55.731Z,3040
2018-07-07T09:50:55.989Z,3032
2018-07-07T09:51:56.247Z,3024
2018-07-07T09:52:56.240Z,3016
2018-07-07T09:53:55.725Z,3012
2018-07-07T09:54:56.246Z,3008
2018-07-07T09:55:56.237Z,3012
2018-07-07T09:56:56.237Z,3008
2018-07-07T09:57:55.985Z,3008
2018-07-07T09:58:55.974Z,3012
2018-07-07T09:59:56.232Z,3028
2018-07-07T10:00:55.979Z,3052
2018-07-07T10:01:56.553Z,3044
2018-07-07T10:02:56.239Z,3024
2018-07-07T10:03:55.972Z,3016
2018-07-07T10:04:55.970Z,3016
2018-07-07T10:05:56.221Z,3008
2018-07-07T10:06:56.223Z,2988
2018-07-07T10:07:56.238Z,2976
2018-07-07T10:08:55.961Z,2968
2018-07-07T10:09:56.219Z,2972
2018-07-07T10:10:56.224Z,2976
2018-07-07T10:11:56.224Z,2968
2018-07-07T10:12:56.229Z,2964
2018-07-07T10:13:56.217Z,2960
2018-07-07T10:14:55.950Z,2960
2018-07-07T10:15:56.206Z,2960
2018-07-07T10:16:56.000Z,2964
2018-07-07T10:17:56.207Z,2968
2018-07-07T10:18:56.207Z,2972
2018-07-07T10:19:55.950Z,2972
2018-07-07T10:20:56.342Z,2960
2018-07-07T10:21:55.689Z,2944
2018-07-07T10:22:56.197Z,2936
2018-07-07T10:23:55.945Z,2928
2018-07-07T10:24:56.203Z,2920
2018-07-07T10:25:55.935Z,2912
2018-07-07T10:26:56.199Z,2908
2018-07-07T10:27:56.195Z,2904
2018-07-07T10:28:56.186Z,2904
2018-07-07T10:29:56.188Z,2908
2018-07-07T10:30:55.931Z,2904
2018-07-07T10:31:55.940Z,2900
2018-07-07T10:32:55.931Z,2888
2018-07-07T10:33:55.939Z,2888
2018-07-07T10:34:56.183Z,2880
2018-07-07T10:35:56.185Z,2880
2018-07-07T10:36:55.921Z,2872
2018-07-07T10:37:55.929Z,2832
2018-07-07T10:38:55.920Z,2844
2018-07-07T10:39:55.927Z,2840
2018-07-07T10:40:55.404Z,2836
2018-07-07T10:41:55.914Z,2832
2018-07-07T10:42:56.180Z,2820
2018-07-07T10:43:56.169Z,2816
2018-07-07T10:44:56.173Z,2804
2018-07-07T10:45:56.787Z,2796
2018-07-07T10:46:55.912Z,2788
2018-07-07T10:47:56.197Z,2792
2018-07-07T10:48:55.777Z,2816
2018-07-07T10:49:55.921Z,2820
2018-07-07T10:50:55.649Z,2804
2018-07-07T10:51:55.647Z,2776
2018-07-07T10:52:56.198Z,2768
2018-07-07T10:53:55.906Z,2756
2018-07-07T10:54:56.167Z,2748
2018-07-07T10:55:56.172Z,2740
2018-07-07T10:56:55.646Z,2728
2018-07-07T10:57:56.157Z,2724
2018-07-07T10:58:56.503Z,2720
2018-07-07T10:59:56.153Z,2712
2018-07-07T11:00:56.152Z,2708
2018-07-07T11:01:55.898Z,2696
2018-07-07T11:02:56.158Z,2684
2018-07-07T11:03:55.892Z,2676
2018-07-07T11:04:56.149Z,2668
2018-07-07T11:05:55.898Z,2652
2018-07-07T11:06:56.148Z,2648
2018-07-07T11:07:55.889Z,2640
2018-07-07T11:08:56.152Z,2640
2018-07-07T11:09:56.153Z,2640
2018-07-07T11:10:56.145Z,2640
2018-07-07T11:11:56.899Z,2640
2018-07-07T11:12:56.141Z,2636
2018-07-07T11:13:55.888Z,2628
2018-07-07T11:14:56.142Z,2628
2018-07-07T11:15:55.632Z,2624
2018-07-07T11:16:55.885Z,2624
2018-07-07T11:17:55.881Z,2624
2018-07-07T11:18:56.141Z,2624
2018-07-07T11:19:56.214Z,2624
2018-07-07T11:20:55.887Z,2628
2018-07-07T11:21:55.882Z,2636
2018-07-07T11:22:56.149Z,2652
2018-07-07T11:23:56.135Z,2680
2018-07-07T11:24:55.926Z,2720
2018-07-07T11:25:56.140Z,2784
2018-07-07T11:26:56.134Z,2812
2018-07-07T11:27:55.875Z,2912
2018-07-07T11:28:55.874Z,2952
2018-07-07T11:29:56.496Z,2944
2018-07-07T11:30:56.138Z,2956
2018-07-07T11:31:55.887Z,2948
2018-07-07T11:32:56.129Z,2992
2018-07-07T11:33:55.872Z,3044
2018-07-07T11:34:56.129Z,2984
2018-07-07T11:35:55.871Z,2920
2018-07-07T11:36:56.187Z,2776
2018-07-07T11:37:55.871Z,2716
2018-07-07T11:38:56.126Z,2716
2018-07-07T11:39:55.868Z,2696
2018-07-07T11:40:55.359Z,2940
2018-07-07T11:41:55.610Z,3020
2018-07-07T11:42:56.125Z,2968
2018-07-07T11:43:56.124Z,3012
2018-07-07T11:44:55.872Z,2948
2018-07-07T11:45:55.866Z,2880
2018-07-07T11:46:56.128Z,2816
2018-07-07T11:47:56.127Z,2764
2018-07-07T11:48:55.866Z,2712
2018-07-07T11:49:55.863Z,2676
2018-07-07T11:50:55.862Z,2644
2018-07-07T11:51:56.120Z,2632
2018-07-07T11:52:55.609Z,2616
2018-07-07T11:53:56.122Z,2608
2018-07-07T11:54:56.121Z,2608
2018-07-07T11:55:55.610Z,2608
2018-07-07T11:56:56.118Z,2608
2018-07-07T11:57:55.864Z,2596
2018-07-07T11:58:55.859Z,2592
2018-07-07T11:59:56.123Z,2592
2018-07-07T12:00:55.603Z,2596
2018-07-07T12:01:56.247Z,2596
2018-07-07T12:02:55.861Z,2604
2018-07-07T12:03:56.113Z,2600
2018-07-07T12:04:56.746Z,2600
2018-07-07T12:05:55.342Z,2600
2018-07-07T12:06:55.598Z,2596
2018-07-07T12:08:20.974Z,2588
2018-07-07T12:08:55.598Z,2576
2018-07-07T12:09:55.598Z,2560
2018-07-07T12:10:55.873Z,2540
2018-07-07T12:11:55.605Z,2524
2018-07-07T12:12:56.110Z,2504
2018-07-07T12:13:56.111Z,2484
2018-07-07T12:14:56.122Z,2480
2018-07-07T12:15:55.853Z,2468
2018-07-07T12:16:55.849Z,2464
2018-07-07T12:17:56.111Z,2464
2018-07-07T12:18:56.113Z,2452
2018-07-07T12:19:56.106Z,2448
2018-07-07T12:20:55.855Z,2440
2018-07-07T12:21:55.598Z,2440
2018-07-07T12:22:56.111Z,2436
2018-07-07T12:23:56.106Z,2436
2018-07-07T12:24:56.357Z,2440
2018-07-07T12:25:55.851Z,2440
2018-07-07T12:26:56.110Z,2440
2018-07-07T12:27:56.106Z,2432
2018-07-07T12:28:56.105Z,2432
2018-07-07T12:29:55.848Z,2432
2018-07-07T12:30:55.849Z,2432
2018-07-07T12:31:56.109Z,2432
2018-07-07T12:32:55.847Z,2440
2018-07-07T12:33:56.100Z,2444
2018-07-07T12:34:55.842Z,2440
2018-07-07T12:35:55.846Z,2452
2018-07-07T12:36:55.855Z,2460
2018-07-07T12:37:55.851Z,2492
2018-07-07T12:38:55.590Z,2536
2018-07-07T12:39:56.100Z,2544
2018-07-07T12:40:56.124Z,2528
2018-07-07T12:41:56.106Z,2520
2018-07-07T12:42:56.101Z,2508
2018-07-07T12:43:55.845Z,2516
2018-07-07T12:44:56.343Z,2548
2018-07-07T12:45:56.320Z,2608
2018-07-07T12:46:55.586Z,2748
2018-07-07T12:47:55.842Z,2948
2018-07-07T12:48:55.846Z,3120
2018-07-07T12:49:55.840Z,3212
2018-07-07T12:50:56.099Z,3256
2018-07-07T12:51:55.913Z,3320
2018-07-07T12:52:55.861Z,3304
2018-07-07T12:53:55.841Z,3208
2018-07-07T12:54:55.584Z,3244
2018-07-07T12:55:56.103Z,3284
2018-07-07T12:56:55.847Z,3304
2018-07-07T12:57:56.097Z,3356
2018-07-07T12:58:55.592Z,3376
2018-07-07T12:59:56.101Z,3340
2018-07-07T13:00:55.841Z,3252
2018-07-07T13:01:56.100Z,3216
2018-07-07T13:02:56.109Z,3172
2018-07-07T13:03:56.096Z,3112
2018-07-07T13:04:55.583Z,3000
2018-07-07T13:05:56.098Z,2876
2018-07-07T13:06:56.183Z,2740
2018-07-07T13:07:55.855Z,2636
2018-07-07T13:08:56.099Z,2548
2018-07-07T13:09:56.101Z,2504
2018-07-07T13:10:55.329Z,2476
2018-07-07T13:11:56.102Z,2452
2018-07-07T13:12:55.840Z,2436
2018-07-07T13:13:56.109Z,2432
2018-07-07T13:14:56.093Z,2444
2018-07-07T13:15:56.107Z,2468
2018-07-07T13:16:55.839Z,2496
2018-07-07T13:17:55.841Z,2508
2018-07-07T13:18:56.095Z,2480
2018-07-07T13:19:55.839Z,2428
2018-07-07T13:20:55.887Z,2380
2018-07-07T13:21:56.100Z,2356
2018-07-07T13:22:55.841Z,2344
2018-07-07T13:23:55.852Z,2340
2018-07-07T13:24:55.328Z,2336
2018-07-07T13:25:55.842Z,2340
2018-07-07T13:26:55.589Z,2336
2018-07-07T13:27:55.842Z,2336
2018-07-07T13:28:56.109Z,2332
2018-07-07T13:29:55.842Z,2328
2018-07-07T13:30:55.587Z,2324
2018-07-07T13:31:56.098Z,2320
2018-07-07T13:32:56.102Z,2328
2018-07-07T13:33:55.855Z,2324
2018-07-07T13:34:55.591Z,2320